• Join FlightAware (Why Join?)
  • Login
  • US Flag 
05:01PM EDT


 

Airport Tracker/Info


-or-


 

Live Flight TrackerFlight Track Log ✈ N498QS ✈ 28-Apr-2013 ✈ KBCT - KMIA

Flight Track Log - Related Links

Times and Time Zones

All times are in EDT time to prevent confusion due to time zone crossing. See the N498QS flight status page for this flight to view local times or setup timezone preferences in your user account.

Time Position Orientation Groundspeed Altitude Reporting Facility
EDT Latitude Longitude Course Direction KTS MPH feet Rate Location/Type
06:11PM 26.5022 -80.0881 North 265 305 7,000  Level Miami Center
06:12PM 26.4806 -80.0178 109° East 267 307 7,000 420 Level Miami Center
06:13PM 26.4061 -79.9928 163° South 261 300 7,900 480 Climbing Miami Center
06:14PM 26.3308 -79.9953 182° South 273 314 8,000  Climbing Miami Center
06:15PM 26.2447 -80.0186 194° South 280 322 8,000  Level Miami Center
06:16PM 26.1689 -80.0419 195° South 280 322 8,000  Level Miami Center
06:17PM 26.0869 -80.0631 193° South 284 327 8,000  Level Miami Center
06:18PM 26.0197 -80.0842 196° South 284 327 8,100  Climbing Miami Center
06:19PM 25.9581 -80.1358 217° Southwest 283 326 8,000 -360 Descending Miami Center
06:20PM 25.9267 -80.2297 250° West 236 272 7,400 -840 Descending Miami Center
06:21PM 25.9231 -80.2964 267° West 240 276 6,200 -1,140 Descending Miami Center
06:22PM 25.9150 -80.3678 263° West 216 249 5,300 -840 Descending Miami Center
06:23PM 25.9136 -80.4303 269° West 190 219 4,500 -1,020 Descending Miami Center
06:24PM 25.8914 -80.4758 242° Southwest 199 229 3,300 -1,020 Descending Miami Center
06:25PM 25.8461 -80.4581 161° South 165 190 2,500 -660 Descending Miami Center
06:27PM 25.8136 -80.4203 134° Southeast 152 175 1,900 -600 Descending Miami Center
06:27PM 25.8019 -80.3831 109° East 159 183 1,400 -660 Descending Miami Center
06:29PM 25.7989 -80.3344 94° East 136 157 700 -660 Descending Miami Center
06:30PM 25.7954 -80.2901 134° Southeast  Level Estimated
06:37PM 25.7954 -80.2901 134° Southeast  Level Estimated
06:38PM 25.7954 -80.2901 134° Southeast  Level Estimated